createdAt,value
2023-09-17T00:01:11.805Z,19.62
2023-09-17T00:03:13.332Z,19.58
2023-09-17T00:05:14.982Z,19.55
2023-09-17T00:07:16.495Z,19.55
2023-09-17T00:09:18.976Z,19.53
2023-09-17T00:11:21.693Z,19.52
2023-09-17T00:13:23.447Z,19.45
2023-09-17T00:15:28.567Z,19.46
2023-09-17T00:17:30.104Z,19.45
2023-09-17T00:19:33.653Z,19.44
2023-09-17T00:21:35.121Z,19.38
2023-09-17T00:23:36.571Z,19.36
2023-09-17T00:25:38.366Z,19.35
2023-09-17T00:27:42.633Z,19.32
2023-09-17T00:29:44.135Z,19.28
2023-09-17T00:31:45.653Z,19.24
2023-09-17T00:33:47.191Z,19.18
2023-09-17T00:35:49.395Z,19.16
2023-09-17T00:37:52.499Z,19.14
2023-09-17T00:39:54.105Z,19.16
2023-09-17T00:41:55.605Z,19.13
2023-09-17T00:43:57.109Z,19.07
2023-09-17T00:45:58.682Z,19.07
2023-09-17T00:48:01.784Z,19.02
2023-09-17T00:50:04.047Z,19.02
2023-09-17T00:52:16.563Z,18.99
2023-09-17T00:54:18.479Z,18.94
2023-09-17T00:56:20.989Z,18.96
2023-09-17T00:58:23.675Z,18.95
2023-09-17T01:00:26.008Z,18.91
2023-09-17T01:02:33.274Z,18.92
2023-09-17T01:04:35.721Z,18.94
2023-09-17T01:06:39.367Z,18.96
2023-09-17T01:13:43.424Z,18.94
2023-09-17T01:15:44.884Z,18.94
2023-09-17T01:17:46.346Z,18.93
2023-09-17T01:19:47.937Z,18.92
2023-09-17T01:22:04.492Z,18.96
2023-09-17T01:24:22.370Z,19.00
2023-09-17T01:26:27.542Z,19.02
2023-09-17T01:28:30.142Z,19.01
2023-09-17T01:30:31.706Z,19.02
2023-09-17T01:32:33.131Z,19.02
2023-09-17T01:34:38.834Z,18.97
2023-09-17T01:36:41.833Z,18.96
2023-09-17T01:38:51.095Z,18.96
2023-09-17T01:40:55.037Z,18.95
2023-09-17T01:42:57.474Z,18.97
2023-09-17T01:45:00.534Z,18.97
2023-09-17T01:47:04.328Z,19.01
2023-09-17T01:49:08.009Z,18.99
2023-09-17T01:51:12.540Z,18.99
2023-09-17T01:53:14.162Z,19.01
2023-09-17T01:55:15.689Z,19.01
2023-09-17T01:57:17.153Z,18.97
2023-09-17T01:59:18.686Z,18.98
2023-09-17T02:01:20.450Z,18.99
2023-09-17T02:03:22.114Z,18.99
2023-09-17T02:05:26.102Z,18.99
2023-09-17T02:07:27.555Z,19.00
2023-09-17T02:09:29.038Z,18.99
2023-09-17T02:11:30.454Z,18.99
2023-09-17T02:13:32.164Z,19.02
2023-09-17T02:15:36.601Z,19.00
2023-09-17T02:17:38.277Z,19.01
2023-09-17T02:19:40.200Z,19.00
2023-09-17T02:21:41.792Z,18.99
2023-09-17T02:23:43.939Z,18.95
2023-09-17T02:25:46.859Z,18.99
2023-09-17T02:30:13.665Z,19.00
2023-09-17T02:32:15.094Z,18.96
2023-09-17T02:34:16.577Z,18.93
2023-09-17T02:36:18.040Z,18.94
2023-09-17T02:38:19.476Z,18.94
2023-09-17T02:40:21.747Z,18.93
2023-09-17T02:42:24.692Z,18.98
2023-09-17T02:44:26.684Z,18.99
2023-09-17T02:46:28.194Z,19.02
2023-09-17T02:48:29.714Z,18.93
2023-09-17T02:50:31.138Z,18.88
2023-09-17T02:52:32.753Z,18.82
2023-09-17T02:54:35.235Z,18.85
2023-09-17T02:56:36.720Z,18.87
2023-09-17T02:58:39.347Z,18.86
2023-09-17T03:00:42.422Z,18.87
2023-09-17T03:02:48.456Z,18.78
2023-09-17T03:04:54.055Z,18.80
2023-09-17T03:06:55.579Z,18.79
2023-09-17T03:08:57.361Z,18.76
2023-09-17T03:10:59.879Z,18.76
2023-09-17T03:13:01.307Z,18.79
2023-09-17T03:15:02.891Z,18.81
2023-09-17T03:17:06.603Z,18.82
2023-09-17T03:19:08.252Z,18.79
2023-09-17T03:21:10.581Z,18.80
2023-09-17T03:23:12.546Z,18.68
2023-09-17T03:25:14.177Z,18.74
2023-09-17T03:27:15.732Z,18.77
2023-09-17T03:29:17.176Z,18.81
2023-09-17T03:31:18.731Z,18.81
2023-09-17T03:33:20.366Z,18.79
2023-09-17T03:35:21.834Z,18.79
2023-09-17T03:37:23.485Z,18.80
2023-09-17T03:39:25.218Z,18.82
2023-09-17T03:41:26.784Z,18.80
2023-09-17T03:43:31.085Z,18.82
2023-09-17T03:45:32.659Z,18.77
2023-09-17T03:47:34.258Z,18.77
2023-09-17T03:49:36.432Z,18.74
2023-09-17T03:51:38.005Z,18.75
2023-09-17T03:53:39.604Z,18.76
2023-09-17T03:55:41.499Z,18.76
2023-09-17T03:57:43.976Z,18.75
2023-09-17T03:59:45.650Z,18.74
2023-09-17T04:01:47.375Z,18.72
2023-09-17T04:03:50.068Z,18.73
2023-09-17T04:05:52.021Z,18.70
2023-09-17T04:07:54.109Z,18.67
2023-09-17T04:09:55.557Z,18.66
2023-09-17T04:12:03.777Z,18.67
2023-09-17T04:14:07.906Z,18.63
2023-09-17T04:16:09.938Z,18.63
2023-09-17T04:18:11.645Z,18.60
2023-09-17T04:20:19.946Z,18.58
2023-09-17T04:22:21.939Z,18.59
2023-09-17T04:24:23.376Z,18.56
2023-09-17T04:26:25.431Z,18.53
2023-09-17T04:28:26.947Z,18.53
2023-09-17T04:30:28.480Z,18.52
2023-09-17T04:32:31.044Z,18.52
2023-09-17T04:34:32.621Z,18.51
2023-09-17T04:36:34.056Z,18.50
2023-09-17T04:38:35.466Z,18.51
2023-09-17T04:40:37.043Z,18.50
2023-09-17T04:42:39.874Z,18.49
2023-09-17T04:44:41.331Z,18.47
2023-09-17T04:46:44.267Z,18.46
2023-09-17T04:48:45.758Z,18.45
2023-09-17T04:50:48.531Z,18.45
2023-09-17T04:52:50.050Z,18.41
2023-09-17T04:54:51.616Z,18.41
2023-09-17T04:56:53.076Z,18.37
2023-09-17T04:58:54.547Z,18.37
2023-09-17T05:00:56.081Z,18.38
2023-09-17T05:02:57.735Z,18.37
2023-09-17T05:04:59.265Z,18.36
2023-09-17T05:07:00.817Z,18.35
2023-09-17T05:09:02.242Z,18.34
2023-09-17T05:11:04.333Z,18.29
2023-09-17T05:13:06.936Z,18.31
2023-09-17T05:15:08.706Z,18.33
2023-09-17T05:17:10.180Z,18.33
2023-09-17T05:19:11.635Z,18.30
2023-09-17T05:21:13.128Z,18.32
2023-09-17T05:23:14.738Z,18.34
2023-09-17T05:25:17.066Z,18.37
2023-09-17T05:27:18.718Z,18.36
2023-09-17T05:29:20.302Z,18.37
2023-09-17T05:31:21.916Z,18.39
2023-09-17T05:33:24.530Z,18.39
2023-09-17T05:35:25.972Z,18.41
2023-09-17T05:37:28.527Z,18.40
2023-09-17T05:39:30.025Z,18.40
2023-09-17T05:41:31.487Z,18.43
2023-09-17T05:43:32.954Z,18.45
2023-09-17T05:45:34.558Z,18.46
2023-09-17T05:47:36.258Z,18.44
2023-09-17T05:49:37.821Z,18.46
2023-09-17T05:51:39.808Z,18.48
2023-09-17T05:53:41.292Z,18.49
2023-09-17T05:55:43.775Z,18.51
2023-09-17T05:57:45.312Z,18.52
2023-09-17T05:59:46.780Z,18.52
2023-09-17T06:01:48.394Z,18.56
2023-09-17T06:03:50.328Z,18.58
2023-09-17T06:05:53.975Z,18.59
2023-09-17T06:07:56.139Z,18.64
2023-09-17T06:09:57.705Z,18.67
2023-09-17T06:11:59.190Z,18.70
2023-09-17T06:14:00.695Z,18.74
2023-09-17T06:16:02.307Z,18.77
2023-09-17T06:18:04.058Z,18.82
2023-09-17T06:20:06.372Z,18.86
2023-09-17T06:22:08.335Z,18.90
2023-09-17T06:24:14.696Z,18.92
2023-09-17T06:26:16.182Z,18.96
2023-09-17T06:28:18.136Z,18.98
2023-09-17T06:30:21.175Z,19.04
2023-09-17T06:32:23.119Z,19.09
2023-09-17T06:34:24.718Z,19.13
2023-09-17T06:36:28.343Z,19.17
2023-09-17T06:38:30.934Z,19.21
2023-09-17T06:40:32.450Z,19.25
2023-09-17T06:42:33.914Z,19.33
2023-09-17T06:44:35.370Z,19.34
2023-09-17T06:46:37.672Z,19.42
2023-09-17T06:48:39.277Z,19.47
2023-09-17T06:50:40.707Z,19.51
2023-09-17T06:52:42.226Z,19.58
2023-09-17T06:54:44.671Z,19.66
2023-09-17T06:56:46.093Z,19.75
2023-09-17T06:58:47.533Z,19.80
2023-09-17T07:00:49.682Z,19.88
2023-09-17T07:02:51.154Z,19.94
2023-09-17T07:04:52.806Z,20.02
2023-09-17T07:06:55.707Z,20.09
2023-09-17T07:08:58.327Z,20.20
2023-09-17T07:11:00.088Z,20.31
2023-09-17T07:13:01.576Z,20.40
2023-09-17T07:15:04.112Z,20.52
2023-09-17T07:17:05.752Z,20.60
2023-09-17T07:19:07.307Z,20.66
2023-09-17T07:21:08.736Z,20.76
2023-09-17T07:23:10.258Z,20.84
2023-09-17T07:25:11.744Z,20.94
2023-09-17T07:27:15.040Z,21.01
2023-09-17T07:29:16.524Z,21.00
2023-09-17T07:31:18.125Z,20.99
2023-09-17T07:33:19.636Z,21.07
2023-09-17T07:35:21.176Z,21.09
2023-09-17T07:37:28.220Z,21.11
2023-09-17T07:39:35.111Z,21.18
2023-09-17T07:41:36.631Z,21.20
2023-09-17T07:43:38.358Z,21.24
2023-09-17T07:45:39.802Z,21.31
2023-09-17T07:47:41.769Z,21.27
2023-09-17T07:49:43.341Z,21.26
2023-09-17T07:51:44.806Z,21.26
2023-09-17T07:53:46.246Z,21.29
2023-09-17T07:55:50.461Z,21.31
2023-09-17T07:57:52.205Z,21.35
2023-09-17T08:00:00.413Z,21.41
2023-09-17T08:02:03.392Z,21.40
2023-09-17T08:04:05.142Z,21.38
2023-09-17T08:06:06.698Z,21.38
2023-09-17T08:08:08.304Z,21.52
2023-09-17T08:10:10.526Z,21.54
2023-09-17T08:12:12.043Z,21.65
2023-09-17T08:14:15.312Z,21.75
2023-09-17T08:16:17.401Z,21.78
2023-09-17T08:18:19.817Z,21.84
2023-09-17T08:20:21.539Z,21.89
2023-09-17T08:22:23.409Z,21.87
2023-09-17T08:24:26.241Z,21.92
2023-09-17T08:26:30.289Z,22.02
2023-09-17T08:28:31.814Z,21.99
2023-09-17T08:30:33.742Z,21.97
2023-09-17T08:32:35.216Z,22.04
2023-09-17T08:34:37.814Z,22.06
2023-09-17T08:36:39.303Z,22.12
2023-09-17T08:38:41.083Z,22.12
2023-09-17T08:40:43.454Z,22.15
2023-09-17T08:42:46.816Z,22.26
2023-09-17T08:44:50.598Z,22.24
2023-09-17T08:46:53.633Z,22.26
2023-09-17T08:48:55.257Z,22.29
2023-09-17T08:50:59.035Z,22.32
2023-09-17T08:53:07.209Z,22.27
2023-09-17T08:55:11.410Z,22.41
2023-09-17T08:57:15.247Z,22.47
2023-09-17T08:59:38.250Z,22.61
2023-09-17T09:01:43.207Z,22.62
2023-09-17T09:03:46.092Z,22.71
2023-09-17T09:05:48.877Z,22.68
2023-09-17T09:07:52.152Z,22.80
2023-09-17T09:09:53.820Z,22.83
2023-09-17T09:11:55.943Z,22.86
2023-09-17T09:13:58.349Z,22.88
2023-09-17T09:16:01.515Z,22.87
2023-09-17T09:18:04.154Z,22.87
2023-09-17T09:20:13.048Z,22.92
2023-09-17T09:22:14.486Z,23.00
2023-09-17T09:24:17.434Z,22.88
2023-09-17T09:26:18.874Z,22.99
2023-09-17T09:28:20.481Z,23.03
2023-09-17T09:30:21.931Z,23.02
2023-09-17T09:32:24.346Z,23.10
2023-09-17T09:34:26.701Z,23.09
2023-09-17T09:36:35.213Z,23.20
2023-09-17T09:38:36.875Z,23.29
2023-09-17T09:40:39.217Z,23.35
2023-09-17T09:42:40.922Z,23.24
2023-09-17T09:44:42.450Z,23.30
2023-09-17T09:46:45.259Z,23.30
2023-09-17T09:48:48.135Z,23.34
2023-09-17T09:52:55.431Z,23.49
2023-09-17T09:54:56.995Z,23.65
2023-09-17T09:56:59.886Z,23.69
2023-09-17T09:59:02.054Z,23.76
2023-09-17T10:01:05.450Z,23.85
2023-09-17T10:03:07.983Z,23.92
2023-09-17T10:05:13.811Z,24.03
2023-09-17T10:07:16.607Z,23.86
2023-09-17T10:09:18.223Z,23.92
2023-09-17T10:11:20.535Z,24.01
2023-09-17T10:13:22.112Z,24.08
2023-09-17T10:15:23.828Z,24.16
2023-09-17T10:17:25.267Z,24.17
2023-09-17T10:19:28.017Z,24.27
2023-09-17T10:21:30.469Z,24.31
2023-09-17T10:23:34.526Z,24.33
2023-09-17T10:25:36.686Z,24.09
2023-09-17T10:27:38.841Z,24.24
2023-09-17T10:29:42.008Z,24.28
2023-09-17T10:31:43.813Z,24.28
2023-09-17T10:33:48.642Z,24.51
2023-09-17T10:35:52.508Z,24.67
2023-09-17T10:37:55.559Z,24.76
2023-09-17T10:39:57.826Z,25.08
2023-09-17T10:42:02.898Z,25.04
2023-09-17T10:44:06.026Z,25.07
2023-09-17T10:46:07.965Z,25.35
2023-09-17T10:48:10.700Z,25.23
2023-09-17T10:50:14.271Z,25.26
2023-09-17T10:52:16.156Z,25.17
2023-09-17T10:54:17.605Z,25.32
2023-09-17T10:56:20.174Z,25.48
2023-09-17T10:58:28.430Z,25.48
2023-09-17T11:00:34.302Z,25.61
2023-09-17T11:02:38.100Z,25.63
2023-09-17T11:04:40.667Z,25.75
2023-09-17T11:06:44.230Z,25.72
2023-09-17T11:08:46.878Z,25.66
2023-09-17T11:10:48.642Z,25.57
2023-09-17T11:12:50.380Z,25.64
2023-09-17T11:14:52.647Z,25.83
2023-09-17T11:16:54.728Z,26.00
2023-09-17T11:19:22.709Z,25.81
2023-09-17T11:21:24.150Z,25.69
2023-09-17T11:23:45.307Z,25.69
2023-09-17T11:25:46.884Z,25.30
2023-09-17T11:27:50.229Z,25.33
2023-09-17T11:29:51.650Z,25.43
2023-09-17T11:31:53.120Z,25.57
2023-09-17T11:33:56.068Z,25.74
2023-09-17T11:36:02.349Z,25.72
2023-09-17T11:38:03.961Z,25.76
2023-09-17T11:40:06.488Z,25.87
2023-09-17T11:42:09.979Z,25.91
2023-09-17T11:44:13.322Z,26.01
2023-09-17T11:46:16.110Z,26.12
2023-09-17T11:48:17.771Z,26.26
2023-09-17T11:50:20.080Z,26.11
2023-09-17T11:52:23.827Z,26.10
2023-09-17T11:54:31.880Z,26.11
2023-09-17T11:56:46.714Z,26.17
2023-09-17T11:59:04.786Z,26.15
2023-09-17T12:01:08.689Z,26.13
2023-09-17T12:03:12.528Z,26.32
2023-09-17T12:05:14.687Z,26.11
2023-09-17T12:07:16.366Z,26.12
2023-09-17T12:09:24.582Z,26.14
2023-09-17T12:11:26.659Z,26.34
2023-09-17T12:13:31.657Z,26.33
2023-09-17T12:15:33.451Z,26.38
2023-09-17T12:17:43.791Z,26.29
2023-09-17T12:19:50.366Z,26.10
2023-09-17T12:21:54.751Z,26.37
2023-09-17T12:23:58.552Z,26.42
2023-09-17T12:26:00.052Z,26.38
2023-09-17T12:28:01.513Z,26.48
2023-09-17T12:30:07.141Z,26.43
2023-09-17T12:32:11.280Z,26.40
2023-09-17T12:34:12.789Z,26.48
2023-09-17T12:36:14.380Z,26.44
2023-09-17T12:38:16.015Z,26.54
2023-09-17T12:40:17.489Z,26.63
2023-09-17T12:42:19.260Z,26.68
2023-09-17T12:44:20.767Z,26.68
2023-09-17T12:46:22.436Z,26.68
2023-09-17T12:48:24.947Z,26.67
2023-09-17T12:50:28.905Z,26.91
2023-09-17T12:52:30.413Z,26.95
2023-09-17T12:54:32.195Z,27.00
2023-09-17T12:56:34.229Z,27.07
2023-09-17T12:58:35.976Z,27.19
2023-09-17T13:00:37.475Z,27.14
2023-09-17T13:02:39.351Z,27.16
2023-09-17T13:04:42.950Z,27.18
2023-09-17T13:06:45.313Z,27.19
2023-09-17T13:08:49.867Z,27.26
2023-09-17T13:10:51.480Z,27.20
2023-09-17T13:12:52.985Z,27.17
2023-09-17T13:14:56.681Z,27.14
2023-09-17T13:16:59.200Z,27.14
2023-09-17T13:19:00.999Z,27.14
2023-09-17T13:21:02.766Z,27.16
2023-09-17T13:23:04.475Z,27.35
2023-09-17T13:25:07.586Z,27.36
2023-09-17T13:27:09.825Z,27.48
2023-09-17T13:29:11.411Z,27.40
2023-09-17T13:31:12.904Z,27.70
2023-09-17T13:33:15.822Z,27.62
2023-09-17T13:35:22.877Z,27.59
2023-09-17T13:37:25.752Z,27.55
2023-09-17T13:39:27.243Z,27.60
2023-09-17T13:41:31.661Z,27.53
2023-09-17T13:43:33.115Z,27.52
2023-09-17T13:45:34.650Z,27.37
2023-09-17T13:47:36.094Z,27.55
2023-09-17T13:49:38.715Z,27.59
2023-09-17T13:51:40.221Z,27.65
2023-09-17T13:53:41.693Z,27.56
2023-09-17T13:55:43.424Z,27.60
2023-09-17T13:57:44.973Z,27.69
2023-09-17T13:59:46.407Z,27.68
2023-09-17T14:01:48.032Z,27.80
2023-09-17T14:03:49.540Z,27.81
2023-09-17T14:05:50.987Z,27.79
2023-09-17T14:07:52.440Z,27.89
2023-09-17T14:09:53.917Z,27.87
2023-09-17T14:11:55.327Z,27.82
2023-09-17T14:13:56.850Z,27.73
2023-09-17T14:15:58.370Z,27.59
2023-09-17T14:17:59.913Z,27.51
2023-09-17T14:20:01.481Z,27.53
2023-09-17T14:22:03.034Z,27.44
2023-09-17T14:24:06.043Z,27.51
2023-09-17T14:26:07.717Z,27.49
2023-09-17T14:28:09.650Z,27.51
2023-09-17T14:30:22.241Z,27.38
2023-09-17T14:32:25.841Z,27.50
2023-09-17T14:34:27.773Z,27.63
2023-09-17T14:36:29.222Z,27.62
2023-09-17T14:38:30.664Z,27.66
2023-09-17T14:40:32.101Z,27.65
2023-09-17T14:42:33.547Z,27.69
2023-09-17T14:44:35.125Z,27.77
2023-09-17T14:46:39.664Z,27.69
2023-09-17T14:48:41.415Z,27.68
2023-09-17T14:50:42.838Z,27.72
2023-09-17T14:52:44.283Z,27.98
2023-09-17T14:54:46.098Z,28.08
2023-09-17T14:56:47.587Z,28.16
2023-09-17T14:58:49.308Z,28.18
2023-09-17T15:00:51.326Z,28.36
2023-09-17T15:02:53.059Z,28.33
2023-09-17T15:04:55.107Z,28.36
2023-09-17T15:06:57.070Z,28.33
2023-09-17T15:08:58.738Z,28.27
2023-09-17T15:11:00.260Z,28.38
2023-09-17T15:13:01.696Z,28.53
2023-09-17T15:15:03.849Z,28.39
2023-09-17T15:17:05.531Z,28.15
2023-09-17T15:19:07.961Z,27.88
2023-09-17T15:21:09.422Z,27.69
2023-09-17T15:23:10.892Z,27.65
2023-09-17T15:25:12.387Z,27.40
2023-09-17T15:27:13.884Z,27.35
2023-09-17T15:29:16.290Z,27.23
2023-09-17T15:31:19.504Z,27.09
2023-09-17T15:33:21.184Z,26.96
2023-09-17T15:35:25.591Z,26.78
2023-09-17T15:37:27.088Z,26.59
2023-09-17T15:39:28.506Z,26.47
2023-09-17T15:41:30.423Z,26.45
2023-09-17T15:43:36.321Z,26.42
2023-09-17T15:45:37.794Z,26.32
2023-09-17T15:47:41.414Z,26.23
2023-09-17T15:49:43.037Z,26.17
2023-09-17T15:51:44.560Z,26.12
2023-09-17T15:53:46.085Z,26.03
2023-09-17T15:55:47.534Z,25.89
2023-09-17T15:57:50.228Z,25.81
2023-09-17T15:59:51.722Z,25.71
2023-09-17T16:01:53.470Z,25.70
2023-09-17T16:03:55.038Z,25.66
2023-09-17T16:05:56.893Z,25.61
2023-09-17T16:07:58.347Z,25.50
2023-09-17T16:09:59.812Z,25.46
2023-09-17T16:12:01.324Z,25.38
2023-09-17T16:14:02.806Z,25.29
2023-09-17T16:16:04.387Z,25.29
2023-09-17T16:18:06.369Z,25.18
2023-09-17T16:20:09.602Z,25.08
2023-09-17T16:22:11.082Z,25.03
2023-09-17T16:24:12.517Z,25.00
2023-09-17T16:26:15.006Z,24.98
2023-09-17T16:28:17.090Z,24.91
2023-09-17T16:30:20.274Z,24.91
2023-09-17T16:32:21.803Z,24.88
2023-09-17T16:34:23.304Z,24.84
2023-09-17T16:36:24.754Z,24.81
2023-09-17T16:38:26.452Z,24.80
2023-09-17T16:40:28.036Z,24.77
2023-09-17T16:42:29.680Z,24.71
2023-09-17T16:44:31.112Z,24.64
2023-09-17T16:46:32.524Z,24.59
2023-09-17T16:48:33.971Z,24.54
2023-09-17T16:50:35.505Z,24.41
2023-09-17T16:52:37.589Z,24.41
2023-09-17T16:54:39.117Z,24.35
2023-09-17T16:56:43.870Z,24.30
2023-09-17T16:58:45.289Z,24.20
2023-09-17T17:00:49.800Z,24.17
2023-09-17T17:02:51.265Z,24.04
2023-09-17T17:04:55.660Z,23.96
2023-09-17T17:06:57.483Z,23.90
2023-09-17T17:08:58.985Z,23.81
2023-09-17T17:11:00.556Z,23.79
2023-09-17T17:13:02.004Z,23.72
2023-09-17T17:15:04.276Z,23.65
2023-09-17T17:17:05.746Z,23.57
2023-09-17T17:19:07.215Z,23.49
2023-09-17T17:21:08.694Z,23.44
2023-09-17T17:23:10.145Z,23.38
2023-09-17T17:25:11.660Z,23.32
2023-09-17T17:27:13.172Z,23.26
2023-09-17T17:29:14.607Z,23.20
2023-09-17T17:31:21.744Z,23.10
2023-09-17T17:33:23.310Z,23.00
2023-09-17T17:35:24.799Z,22.92
2023-09-17T17:37:26.297Z,22.84
2023-09-17T17:39:27.752Z,22.78
2023-09-17T17:41:29.441Z,22.73
2023-09-17T17:43:32.794Z,22.68
2023-09-17T17:45:35.936Z,22.66
2023-09-17T17:47:38.109Z,22.62
2023-09-17T17:49:39.602Z,22.60
2023-09-17T17:51:41.029Z,22.56
2023-09-17T17:53:42.445Z,22.50
2023-09-17T17:55:43.973Z,22.44
2023-09-17T17:57:45.623Z,22.39
2023-09-17T17:59:47.114Z,22.34
2023-09-17T18:01:48.544Z,22.30
2023-09-17T18:03:50.130Z,22.24
2023-09-17T18:05:54.982Z,22.16
2023-09-17T18:07:56.460Z,22.14
2023-09-17T18:09:57.917Z,22.08
2023-09-17T18:12:00.955Z,22.05
2023-09-17T18:14:02.582Z,22.01
2023-09-17T18:16:04.048Z,21.96
2023-09-17T18:18:05.777Z,21.94
2023-09-17T18:20:07.635Z,21.91
2023-09-17T18:22:09.118Z,21.87
2023-09-17T18:24:10.558Z,21.83
2023-09-17T18:26:12.096Z,21.82
2023-09-17T18:28:13.596Z,21.78
2023-09-17T18:30:15.056Z,21.75
2023-09-17T18:32:17.965Z,21.72
2023-09-17T18:34:19.550Z,21.70
2023-09-17T18:36:20.970Z,21.68
2023-09-17T18:38:22.544Z,21.66
2023-09-17T18:40:24.323Z,21.64
2023-09-17T18:42:25.843Z,21.58
2023-09-17T18:44:27.768Z,21.54
2023-09-17T18:46:31.557Z,21.51
2023-09-17T18:48:33.053Z,21.48
2023-09-17T18:50:34.604Z,21.47
2023-09-17T18:52:36.703Z,21.48
2023-09-17T18:54:40.058Z,21.45
2023-09-17T18:56:42.403Z,21.40
2023-09-17T18:58:43.950Z,21.38
2023-09-17T19:00:45.684Z,21.34
2023-09-17T19:02:47.216Z,21.30
2023-09-17T19:04:49.605Z,21.30
2023-09-17T19:06:51.956Z,21.26
2023-09-17T19:08:53.808Z,21.23
2023-09-17T19:10:55.263Z,21.20
2023-09-17T19:12:57.717Z,21.19
2023-09-17T19:15:00.212Z,21.18
2023-09-17T19:17:04.821Z,21.11
2023-09-17T19:19:07.007Z,21.13
2023-09-17T19:21:10.743Z,21.10
2023-09-17T19:23:15.661Z,21.08
2023-09-17T19:25:17.176Z,21.06
2023-09-17T19:27:18.697Z,21.03
2023-09-17T19:29:21.080Z,21.02
2023-09-17T19:31:22.959Z,21.00
2023-09-17T19:33:24.458Z,20.98
2023-09-17T19:35:26.146Z,20.94
2023-09-17T19:37:27.610Z,20.89
2023-09-17T19:39:29.069Z,20.88
2023-09-17T19:41:34.654Z,20.85
2023-09-17T19:43:36.160Z,20.87
2023-09-17T19:45:37.654Z,20.85
2023-09-17T19:47:39.373Z,20.82
2023-09-17T19:49:41.988Z,20.81
2023-09-17T19:51:43.394Z,20.75
2023-09-17T19:53:44.840Z,20.72
2023-09-17T19:55:47.796Z,20.74
2023-09-17T19:57:49.606Z,20.69
2023-09-17T19:59:51.332Z,20.63
2023-09-17T20:01:53.013Z,20.62
2023-09-17T20:03:56.492Z,20.58
2023-09-17T20:05:58.052Z,20.55
2023-09-17T20:08:00.241Z,20.55
2023-09-17T20:10:02.903Z,20.53
2023-09-17T20:12:04.581Z,20.51
2023-09-17T20:14:06.036Z,20.50
2023-09-17T20:16:07.524Z,20.50
2023-09-17T20:18:09.760Z,20.47
2023-09-17T20:20:11.957Z,20.49
2023-09-17T20:22:13.461Z,20.50
2023-09-17T20:24:15.045Z,20.47
2023-09-17T20:26:17.804Z,20.47
2023-09-17T20:28:19.361Z,20.44
2023-09-17T20:30:20.850Z,20.42
2023-09-17T20:32:22.326Z,20.41
2023-09-17T20:34:24.263Z,20.40
2023-09-17T20:36:26.114Z,20.38
2023-09-17T20:38:27.546Z,20.38
2023-09-17T20:40:29.554Z,20.33
2023-09-17T20:42:31.124Z,20.28
2023-09-17T20:44:32.817Z,20.32
2023-09-17T20:46:34.242Z,20.29
2023-09-17T20:48:35.743Z,20.34
2023-09-17T20:50:37.176Z,20.28
2023-09-17T20:52:39.263Z,20.27
2023-09-17T20:54:40.728Z,20.22
2023-09-17T20:56:43.279Z,20.21
2023-09-17T20:58:44.776Z,20.18
2023-09-17T21:00:46.205Z,20.19
2023-09-17T21:02:47.851Z,20.20
2023-09-17T21:04:50.043Z,20.17
2023-09-17T21:06:51.514Z,20.14
2023-09-17T21:08:53.307Z,20.12
2023-09-17T21:10:55.102Z,20.13
2023-09-17T21:12:58.708Z,20.18
2023-09-17T21:15:00.426Z,20.18
2023-09-17T21:17:01.889Z,20.15
2023-09-17T21:19:04.114Z,20.13
2023-09-17T21:21:05.793Z,20.12
2023-09-17T21:23:08.744Z,20.10
2023-09-17T21:25:10.243Z,20.09
2023-09-17T21:27:11.896Z,20.08
2023-09-17T21:29:13.620Z,20.07
2023-09-17T21:31:15.659Z,20.03
2023-09-17T21:33:17.466Z,20.08
2023-09-17T21:35:19.253Z,20.06
2023-09-17T21:37:20.733Z,20.05
2023-09-17T21:39:28.484Z,20.04
2023-09-17T21:41:30.394Z,20.02
2023-09-17T21:43:31.917Z,20.02
2023-09-17T21:45:33.337Z,20.03
2023-09-17T21:47:34.833Z,20.04
2023-09-17T21:49:36.298Z,20.01
2023-09-17T21:51:37.795Z,20.02
2023-09-17T21:53:39.233Z,20.02
2023-09-17T21:55:40.822Z,20.00
2023-09-17T21:57:44.400Z,19.97
2023-09-17T21:59:46.956Z,19.97
2023-09-17T22:01:48.435Z,19.97
2023-09-17T22:03:49.943Z,19.96
2023-09-17T22:05:51.670Z,19.95
2023-09-17T22:07:53.141Z,19.96
2023-09-17T22:09:55.040Z,19.96
2023-09-17T22:11:56.562Z,19.99
2023-09-17T22:13:58.049Z,19.97
2023-09-17T22:15:59.557Z,19.97
2023-09-17T22:18:00.984Z,20.00
2023-09-17T22:20:13.400Z,19.99
2023-09-17T22:22:15.013Z,19.98
2023-09-17T22:24:16.637Z,19.96
2023-09-17T22:26:18.066Z,19.96
2023-09-17T22:28:19.507Z,19.91
2023-09-17T22:30:21.083Z,19.90
2023-09-17T22:32:22.583Z,19.90
2023-09-17T22:34:24.167Z,19.89
2023-09-17T22:36:26.063Z,19.88
2023-09-17T22:38:27.528Z,19.87
2023-09-17T22:40:29.094Z,19.85
2023-09-17T22:42:34.719Z,19.83
2023-09-17T22:44:38.847Z,19.84
2023-09-17T22:46:41.472Z,19.75
2023-09-17T22:48:50.987Z,19.78
2023-09-17T22:50:55.381Z,19.78
2023-09-17T22:52:56.909Z,19.78
2023-09-17T22:54:58.542Z,19.74
2023-09-17T22:57:00.030Z,19.75
2023-09-17T22:59:01.600Z,19.73
2023-09-17T23:01:04.117Z,19.70
2023-09-17T23:03:05.610Z,19.71
2023-09-17T23:05:09.333Z,19.71
2023-09-17T23:07:10.921Z,19.69
2023-09-17T23:09:12.425Z,19.64
2023-09-17T23:11:14.484Z,19.63
2023-09-17T23:13:16.028Z,19.64
2023-09-17T23:15:18.455Z,19.63
2023-09-17T23:17:19.937Z,19.62
2023-09-17T23:19:24.031Z,19.63
2023-09-17T23:21:25.510Z,19.63
2023-09-17T23:23:26.969Z,19.62
2023-09-17T23:25:28.474Z,19.57
2023-09-17T23:27:31.453Z,19.58
2023-09-17T23:29:32.895Z,19.58
2023-09-17T23:31:37.061Z,19.57
2023-09-17T23:33:40.676Z,19.55
2023-09-17T23:35:42.181Z,19.54
2023-09-17T23:37:43.577Z,19.51
2023-09-17T23:39:45.282Z,19.51
2023-09-17T23:41:46.697Z,19.46
2023-09-17T23:43:48.199Z,19.46
2023-09-17T23:45:50.170Z,19.45
2023-09-17T23:47:51.868Z,19.41
2023-09-17T23:49:54.402Z,19.38
2023-09-17T23:51:55.869Z,19.36
2023-09-17T23:53:57.342Z,19.35
2023-09-17T23:55:59.520Z,19.32
2023-09-17T23:58:01.278Z,19.28
